sensor_id;sensor_type;location;lat;lon;timestamp;P1;durP1;ratioP1;P2;durP2;ratioP2
20527;SDS011;23612;50.894;10.700;2024-02-21T00:00:03;15.45;;;5.50;;
20527;SDS011;23612;50.894;10.700;2024-02-21T00:02:30;19.92;;;5.25;;
20527;SDS011;23612;50.894;10.700;2024-02-21T00:04:55;18.63;;;5.57;;
20527;SDS011;23612;50.894;10.700;2024-02-21T00:07:20;14.10;;;5.20;;
20527;SDS011;23612;50.894;10.700;2024-02-21T00:09:46;17.73;;;5.35;;
20527;SDS011;23612;50.894;10.700;2024-02-21T00:12:11;12.93;;;5.13;;
20527;SDS011;23612;50.894;10.700;2024-02-21T00:14:38;16.02;;;4.95;;
20527;SDS011;23612;50.894;10.700;2024-02-21T00:17:05;19.15;;;6.15;;
20527;SDS011;23612;50.894;10.700;2024-02-21T00:19:30;18.52;;;5.30;;
20527;SDS011;23612;50.894;10.700;2024-02-21T00:21:56;18.60;;;6.28;;
20527;SDS011;23612;50.894;10.700;2024-02-21T00:24:21;19.70;;;5.80;;
20527;SDS011;23612;50.894;10.700;2024-02-21T00:26:47;18.55;;;5.78;;
20527;SDS011;23612;50.894;10.700;2024-02-21T00:29:12;16.55;;;5.60;;
20527;SDS011;23612;50.894;10.700;2024-02-21T00:31:38;13.77;;;5.60;;
20527;SDS011;23612;50.894;10.700;2024-02-21T00:34:03;18.27;;;5.32;;
20527;SDS011;23612;50.894;10.700;2024-02-21T00:36:29;18.75;;;4.93;;
20527;SDS011;23612;50.894;10.700;2024-02-21T00:38:54;17.45;;;5.15;;
20527;SDS011;23612;50.894;10.700;2024-02-21T00:41:19;24.40;;;5.82;;
20527;SDS011;23612;50.894;10.700;2024-02-21T00:43:45;16.35;;;4.93;;
20527;SDS011;23612;50.894;10.700;2024-02-21T00:46:11;15.18;;;5.10;;
20527;SDS011;23612;50.894;10.700;2024-02-21T00:48:37;14.27;;;4.47;;
20527;SDS011;23612;50.894;10.700;2024-02-21T00:51:02;12.30;;;4.63;;
20527;SDS011;23612;50.894;10.700;2024-02-21T00:53:28;16.67;;;5.47;;
20527;SDS011;23612;50.894;10.700;2024-02-21T00:55:54;15.75;;;5.18;;
20527;SDS011;23612;50.894;10.700;2024-02-21T00:58:21;21.38;;;5.53;;
20527;SDS011;23612;50.894;10.700;2024-02-21T01:00:47;14.45;;;5.20;;
20527;SDS011;23612;50.894;10.700;2024-02-21T01:03:12;14.20;;;5.13;;
20527;SDS011;23612;50.894;10.700;2024-02-21T01:05:38;9.00;;;4.80;;
20527;SDS011;23612;50.894;10.700;2024-02-21T01:08:03;14.70;;;4.65;;
20527;SDS011;23612;50.894;10.700;2024-02-21T01:10:29;16.92;;;5.10;;
20527;SDS011;23612;50.894;10.700;2024-02-21T01:12:55;10.40;;;4.53;;
20527;SDS011;23612;50.894;10.700;2024-02-21T01:15:20;16.83;;;5.18;;
20527;SDS011;23612;50.894;10.700;2024-02-21T01:17:46;16.38;;;4.70;;
20527;SDS011;23612;50.894;10.700;2024-02-21T01:20:11;16.52;;;4.82;;
20527;SDS011;23612;50.894;10.700;2024-02-21T01:22:37;16.52;;;5.22;;
20527;SDS011;23612;50.894;10.700;2024-02-21T01:25:02;17.65;;;4.90;;
20527;SDS011;23612;50.894;10.700;2024-02-21T01:27:28;14.05;;;5.18;;
20527;SDS011;23612;50.894;10.700;2024-02-21T01:29:54;21.42;;;5.20;;
20527;SDS011;23612;50.894;10.700;2024-02-21T01:32:19;18.77;;;5.05;;
20527;SDS011;23612;50.894;10.700;2024-02-21T01:34:44;25.00;;;5.70;;
20527;SDS011;23612;50.894;10.700;2024-02-21T01:37:10;19.23;;;4.85;;
20527;SDS011;23612;50.894;10.700;2024-02-21T01:39:35;21.42;;;5.63;;
20527;SDS011;23612;50.894;10.700;2024-02-21T01:42:02;15.00;;;5.28;;
20527;SDS011;23612;50.894;10.700;2024-02-21T01:44:27;16.23;;;5.68;;
20527;SDS011;23612;50.894;10.700;2024-02-21T01:46:53;14.77;;;5.60;;
20527;SDS011;23612;50.894;10.700;2024-02-21T01:49:19;19.42;;;5.00;;
20527;SDS011;23612;50.894;10.700;2024-02-21T01:51:46;18.30;;;5.53;;
20527;SDS011;23612;50.894;10.700;2024-02-21T01:54:13;13.38;;;5.45;;
20527;SDS011;23612;50.894;10.700;2024-02-21T01:56:39;10.27;;;5.03;;
20527;SDS011;23612;50.894;10.700;2024-02-21T01:59:05;19.40;;;5.75;;
20527;SDS011;23612;50.894;10.700;2024-02-21T02:01:30;16.45;;;5.78;;
20527;SDS011;23612;50.894;10.700;2024-02-21T02:03:56;20.88;;;5.28;;
20527;SDS011;23612;50.894;10.700;2024-02-21T02:06:24;16.75;;;5.30;;
20527;SDS011;23612;50.894;10.700;2024-02-21T02:08:49;18.75;;;6.00;;
20527;SDS011;23612;50.894;10.700;2024-02-21T02:11:15;18.77;;;5.63;;
20527;SDS011;23612;50.894;10.700;2024-02-21T02:13:41;20.17;;;5.70;;
20527;SDS011;23612;50.894;10.700;2024-02-21T02:16:07;17.90;;;6.47;;
20527;SDS011;23612;50.894;10.700;2024-02-21T02:18:32;19.83;;;6.05;;
20527;SDS011;23612;50.894;10.700;2024-02-21T02:20:58;14.85;;;5.57;;
20527;SDS011;23612;50.894;10.700;2024-02-21T02:25:58;25.35;;;6.40;;
20527;SDS011;23612;50.894;10.700;2024-02-21T02:28:24;15.75;;;5.72;;
20527;SDS011;23612;50.894;10.700;2024-02-21T02:30:50;20.00;;;6.10;;
20527;SDS011;23612;50.894;10.700;2024-02-21T02:33:15;14.20;;;6.22;;
20527;SDS011;23612;50.894;10.700;2024-02-21T02:35:43;17.58;;;6.88;;
20527;SDS011;23612;50.894;10.700;2024-02-21T02:38:08;23.60;;;5.97;;
20527;SDS011;23612;50.894;10.700;2024-02-21T02:40:34;15.98;;;5.78;;
20527;SDS011;23612;50.894;10.700;2024-02-21T02:43:00;28.60;;;6.78;;
20527;SDS011;23612;50.894;10.700;2024-02-21T02:45:26;17.75;;;6.43;;
20527;SDS011;23612;50.894;10.700;2024-02-21T02:47:52;18.73;;;6.82;;
20527;SDS011;23612;50.894;10.700;2024-02-21T02:50:24;17.08;;;6.35;;
20527;SDS011;23612;50.894;10.700;2024-02-21T02:52:50;19.40;;;6.68;;
20527;SDS011;23612;50.894;10.700;2024-02-21T02:55:16;18.92;;;6.82;;
20527;SDS011;23612;50.894;10.700;2024-02-21T02:57:42;14.45;;;6.28;;
20527;SDS011;23612;50.894;10.700;2024-02-21T03:00:08;18.98;;;6.53;;
20527;SDS011;23612;50.894;10.700;2024-02-21T03:02:35;19.17;;;6.45;;
20527;SDS011;23612;50.894;10.700;2024-02-21T03:05:02;23.63;;;8.15;;
20527;SDS011;23612;50.894;10.700;2024-02-21T03:07:40;18.40;;;6.78;;
20527;SDS011;23612;50.894;10.700;2024-02-21T03:10:05;23.95;;;7.13;;
20527;SDS011;23612;50.894;10.700;2024-02-21T03:12:31;22.30;;;6.70;;
20527;SDS011;23612;50.894;10.700;2024-02-21T03:14:57;15.25;;;6.45;;
20527;SDS011;23612;50.894;10.700;2024-02-21T03:17:22;22.08;;;7.13;;
20527;SDS011;23612;50.894;10.700;2024-02-21T03:19:48;19.25;;;7.10;;
20527;SDS011;23612;50.894;10.700;2024-02-21T03:22:14;18.52;;;6.57;;
20527;SDS011;23612;50.894;10.700;2024-02-21T03:24:40;17.10;;;6.35;;
20527;SDS011;23612;50.894;10.700;2024-02-21T03:27:06;19.20;;;6.90;;
20527;SDS011;23612;50.894;10.700;2024-02-21T03:29:31;14.98;;;6.95;;
20527;SDS011;23612;50.894;10.700;2024-02-21T03:31:57;20.60;;;7.25;;
20527;SDS011;23612;50.894;10.700;2024-02-21T03:34:22;22.20;;;7.15;;
20527;SDS011;23612;50.894;10.700;2024-02-21T03:36:48;18.08;;;7.32;;
20527;SDS011;23612;50.894;10.700;2024-02-21T03:39:13;17.48;;;7.82;;
20527;SDS011;23612;50.894;10.700;2024-02-21T03:41:39;25.35;;;7.68;;
20527;SDS011;23612;50.894;10.700;2024-02-21T03:44:04;20.75;;;7.20;;
20527;SDS011;23612;50.894;10.700;2024-02-21T03:46:30;20.23;;;7.47;;
20527;SDS011;23612;50.894;10.700;2024-02-21T03:48:56;24.85;;;7.78;;
20527;SDS011;23612;50.894;10.700;2024-02-21T03:51:22;21.45;;;7.65;;
20527;SDS011;23612;50.894;10.700;2024-02-21T03:53:47;18.92;;;7.22;;
20527;SDS011;23612;50.894;10.700;2024-02-21T03:56:13;20.98;;;7.97;;
20527;SDS011;23612;50.894;10.700;2024-02-21T03:58:38;22.73;;;7.20;;
20527;SDS011;23612;50.894;10.700;2024-02-21T04:01:04;21.40;;;7.57;;
20527;SDS011;23612;50.894;10.700;2024-02-21T04:03:30;24.20;;;8.10;;
20527;SDS011;23612;50.894;10.700;2024-02-21T04:05:56;17.92;;;7.63;;
20527;SDS011;23612;50.894;10.700;2024-02-21T04:08:22;22.95;;;7.15;;
20527;SDS011;23612;50.894;10.700;2024-02-21T04:10:48;20.05;;;7.35;;
20527;SDS011;23612;50.894;10.700;2024-02-21T04:13:13;21.38;;;7.93;;
20527;SDS011;23612;50.894;10.700;2024-02-21T04:15:39;20.35;;;7.30;;
20527;SDS011;23612;50.894;10.700;2024-02-21T04:18:04;15.00;;;6.97;;
20527;SDS011;23612;50.894;10.700;2024-02-21T04:20:30;17.80;;;7.20;;
20527;SDS011;23612;50.894;10.700;2024-02-21T04:22:57;23.60;;;8.20;;
20527;SDS011;23612;50.894;10.700;2024-02-21T04:25:22;17.27;;;6.88;;
20527;SDS011;23612;50.894;10.700;2024-02-21T04:27:48;22.42;;;7.70;;
20527;SDS011;23612;50.894;10.700;2024-02-21T04:30:13;20.15;;;7.30;;
20527;SDS011;23612;50.894;10.700;2024-02-21T04:32:39;20.88;;;7.35;;
20527;SDS011;23612;50.894;10.700;2024-02-21T04:35:05;17.67;;;7.07;;
20527;SDS011;23612;50.894;10.700;2024-02-21T04:37:32;19.27;;;7.97;;
20527;SDS011;23612;50.894;10.700;2024-02-21T04:39:57;21.10;;;7.65;;
20527;SDS011;23612;50.894;10.700;2024-02-21T04:42:23;19.40;;;7.38;;
20527;SDS011;23612;50.894;10.700;2024-02-21T04:44:48;23.15;;;8.25;;
20527;SDS011;23612;50.894;10.700;2024-02-21T04:47:13;19.80;;;8.18;;
20527;SDS011;23612;50.894;10.700;2024-02-21T04:49:39;16.63;;;7.30;;
20527;SDS011;23612;50.894;10.700;2024-02-21T04:52:04;22.02;;;8.85;;
20527;SDS011;23612;50.894;10.700;2024-02-21T04:54:30;17.55;;;7.60;;
20527;SDS011;23612;50.894;10.700;2024-02-21T04:56:55;21.38;;;7.90;;
20527;SDS011;23612;50.894;10.700;2024-02-21T04:59:21;25.38;;;9.02;;
20527;SDS011;23612;50.894;10.700;2024-02-21T05:01:46;25.13;;;9.82;;
20527;SDS011;23612;50.894;10.700;2024-02-21T05:04:12;19.15;;;7.05;;
20527;SDS011;23612;50.894;10.700;2024-02-21T05:06:41;17.90;;;8.63;;
20527;SDS011;23612;50.894;10.700;2024-02-21T05:09:07;28.33;;;8.38;;
20527;SDS011;23612;50.894;10.700;2024-02-21T05:11:34;22.40;;;7.35;;
20527;SDS011;23612;50.894;10.700;2024-02-21T05:14:00;19.40;;;6.63;;
20527;SDS011;23612;50.894;10.700;2024-02-21T05:16:25;17.23;;;6.22;;
20527;SDS011;23612;50.894;10.700;2024-02-21T05:18:51;15.98;;;6.88;;
20527;SDS011;23612;50.894;10.700;2024-02-21T05:21:16;14.90;;;6.18;;
20527;SDS011;23612;50.894;10.700;2024-02-21T05:23:42;16.73;;;6.50;;
20527;SDS011;23612;50.894;10.700;2024-02-21T05:26:07;20.60;;;6.82;;
20527;SDS011;23612;50.894;10.700;2024-02-21T05:28:33;17.88;;;6.70;;
20527;SDS011;23612;50.894;10.700;2024-02-21T05:30:59;14.18;;;6.43;;
20527;SDS011;23612;50.894;10.700;2024-02-21T05:33:24;15.07;;;6.65;;
20527;SDS011;23612;50.894;10.700;2024-02-21T05:35:50;19.45;;;6.32;;
20527;SDS011;23612;50.894;10.700;2024-02-21T05:38:16;18.65;;;6.72;;
20527;SDS011;23612;50.894;10.700;2024-02-21T05:40:42;21.08;;;7.20;;
20527;SDS011;23612;50.894;10.700;2024-02-21T05:43:08;19.67;;;6.70;;
20527;SDS011;23612;50.894;10.700;2024-02-21T05:45:33;17.92;;;7.35;;
20527;SDS011;23612;50.894;10.700;2024-02-21T05:47:59;19.92;;;8.50;;
20527;SDS011;23612;50.894;10.700;2024-02-21T05:50:25;28.42;;;11.50;;
20527;SDS011;23612;50.894;10.700;2024-02-21T05:52:51;17.52;;;8.02;;
20527;SDS011;23612;50.894;10.700;2024-02-21T05:55:17;19.20;;;7.30;;
20527;SDS011;23612;50.894;10.700;2024-02-21T05:57:43;20.45;;;6.60;;
20527;SDS011;23612;50.894;10.700;2024-02-21T06:00:09;27.65;;;7.65;;
20527;SDS011;23612;50.894;10.700;2024-02-21T06:02:34;21.33;;;6.85;;
20527;SDS011;23612;50.894;10.700;2024-02-21T06:05:00;30.67;;;7.50;;
20527;SDS011;23612;50.894;10.700;2024-02-21T06:07:25;20.63;;;7.05;;
20527;SDS011;23612;50.894;10.700;2024-02-21T06:09:51;19.30;;;6.47;;
20527;SDS011;23612;50.894;10.700;2024-02-21T06:12:16;21.00;;;7.40;;
20527;SDS011;23612;50.894;10.700;2024-02-21T06:14:42;18.75;;;7.32;;
20527;SDS011;23612;50.894;10.700;2024-02-21T06:17:07;18.55;;;6.50;;
20527;SDS011;23612;50.894;10.700;2024-02-21T06:19:33;19.60;;;8.18;;
20527;SDS011;23612;50.894;10.700;2024-02-21T06:21:58;16.85;;;7.65;;
20527;SDS011;23612;50.894;10.700;2024-02-21T06:24:24;27.52;;;9.25;;
20527;SDS011;23612;50.894;10.700;2024-02-21T06:26:49;16.58;;;8.60;;
20527;SDS011;23612;50.894;10.700;2024-02-21T06:29:14;21.65;;;7.75;;
20527;SDS011;23612;50.894;10.700;2024-02-21T06:31:40;23.38;;;11.82;;
20527;SDS011;23612;50.894;10.700;2024-02-21T06:34:06;18.60;;;7.88;;
20527;SDS011;23612;50.894;10.700;2024-02-21T06:36:31;17.65;;;7.20;;
20527;SDS011;23612;50.894;10.700;2024-02-21T06:38:57;24.30;;;7.95;;
20527;SDS011;23612;50.894;10.700;2024-02-21T06:41:23;17.45;;;9.30;;
20527;SDS011;23612;50.894;10.700;2024-02-21T06:43:48;17.77;;;7.50;;
20527;SDS011;23612;50.894;10.700;2024-02-21T06:46:26;19.65;;;7.18;;
20527;SDS011;23612;50.894;10.700;2024-02-21T06:48:56;17.30;;;7.80;;
20527;SDS011;23612;50.894;10.700;2024-02-21T06:51:22;17.98;;;8.10;;
20527;SDS011;23612;50.894;10.700;2024-02-21T06:53:47;15.27;;;6.88;;
20527;SDS011;23612;50.894;10.700;2024-02-21T06:56:13;15.80;;;7.65;;
20527;SDS011;23612;50.894;10.700;2024-02-21T06:58:38;14.73;;;6.25;;
20527;SDS011;23612;50.894;10.700;2024-02-21T07:01:04;22.70;;;7.80;;
20527;SDS011;23612;50.894;10.700;2024-02-21T07:03:30;13.07;;;6.30;;
20527;SDS011;23612;50.894;10.700;2024-02-21T07:05:55;19.52;;;8.10;;
20527;SDS011;23612;50.894;10.700;2024-02-21T07:08:20;13.50;;;6.40;;
20527;SDS011;23612;50.894;10.700;2024-02-21T07:10:46;20.48;;;8.07;;
20527;SDS011;23612;50.894;10.700;2024-02-21T07:13:12;16.05;;;7.53;;
20527;SDS011;23612;50.894;10.700;2024-02-21T07:15:38;18.60;;;7.65;;
20527;SDS011;23612;50.894;10.700;2024-02-21T07:18:04;14.07;;;6.85;;
20527;SDS011;23612;50.894;10.700;2024-02-21T07:20:29;23.20;;;7.20;;
20527;SDS011;23612;50.894;10.700;2024-02-21T07:22:55;18.92;;;7.93;;
20527;SDS011;23612;50.894;10.700;2024-02-21T07:25:20;17.42;;;8.10;;
20527;SDS011;23612;50.894;10.700;2024-02-21T07:27:46;17.33;;;7.38;;
20527;SDS011;23612;50.894;10.700;2024-02-21T07:30:11;16.00;;;6.97;;
20527;SDS011;23612;50.894;10.700;2024-02-21T07:32:37;14.38;;;7.63;;
20527;SDS011;23612;50.894;10.700;2024-02-21T07:35:03;17.33;;;7.13;;
20527;SDS011;23612;50.894;10.700;2024-02-21T07:37:28;14.40;;;7.25;;
20527;SDS011;23612;50.894;10.700;2024-02-21T07:39:54;12.75;;;7.18;;
20527;SDS011;23612;50.894;10.700;2024-02-21T07:42:19;15.77;;;7.72;;
20527;SDS011;23612;50.894;10.700;2024-02-21T07:44:45;17.48;;;7.65;;
20527;SDS011;23612;50.894;10.700;2024-02-21T07:47:10;20.25;;;8.15;;
20527;SDS011;23612;50.894;10.700;2024-02-21T07:49:45;15.60;;;7.78;;
20527;SDS011;23612;50.894;10.700;2024-02-21T07:52:11;15.13;;;8.32;;
20527;SDS011;23612;50.894;10.700;2024-02-21T07:54:36;26.63;;;9.93;;
20527;SDS011;23612;50.894;10.700;2024-02-21T07:57:02;18.40;;;8.70;;
20527;SDS011;23612;50.894;10.700;2024-02-21T07:59:27;18.92;;;8.52;;
20527;SDS011;23612;50.894;10.700;2024-02-21T08:01:57;17.52;;;9.15;;
20527;SDS011;23612;50.894;10.700;2024-02-21T08:04:23;14.52;;;8.18;;
20527;SDS011;23612;50.894;10.700;2024-02-21T08:06:52;20.58;;;9.65;;
20527;SDS011;23612;50.894;10.700;2024-02-21T08:09:18;19.70;;;9.13;;
20527;SDS011;23612;50.894;10.700;2024-02-21T08:11:44;19.77;;;8.77;;
20527;SDS011;23612;50.894;10.700;2024-02-21T08:14:09;17.92;;;7.80;;
20527;SDS011;23612;50.894;10.700;2024-02-21T08:16:35;26.58;;;9.07;;
20527;SDS011;23612;50.894;10.700;2024-02-21T08:19:00;15.88;;;8.07;;
20527;SDS011;23612;50.894;10.700;2024-02-21T08:21:28;15.15;;;7.35;;
20527;SDS011;23612;50.894;10.700;2024-02-21T08:23:53;25.42;;;7.93;;
20527;SDS011;23612;50.894;10.700;2024-02-21T08:26:19;42.53;;;14.18;;
20527;SDS011;23612;50.894;10.700;2024-02-21T08:28:45;23.00;;;8.10;;
20527;SDS011;23612;50.894;10.700;2024-02-21T08:31:10;12.93;;;6.78;;
20527;SDS011;23612;50.894;10.700;2024-02-21T08:33:35;16.98;;;7.88;;
20527;SDS011;23612;50.894;10.700;2024-02-21T08:36:01;10.95;;;6.03;;
20527;SDS011;23612;50.894;10.700;2024-02-21T08:38:28;12.18;;;6.35;;
20527;SDS011;23612;50.894;10.700;2024-02-21T08:40:53;16.05;;;7.57;;
20527;SDS011;23612;50.894;10.700;2024-02-21T08:43:19;11.40;;;6.10;;
20527;SDS011;23612;50.894;10.700;2024-02-21T08:45:44;13.50;;;6.13;;
20527;SDS011;23612;50.894;10.700;2024-02-21T08:48:09;7.47;;;5.30;;
20527;SDS011;23612;50.894;10.700;2024-02-21T08:50:35;10.60;;;4.97;;
20527;SDS011;23612;50.894;10.700;2024-02-21T08:53:01;13.23;;;5.22;;
20527;SDS011;23612;50.894;10.700;2024-02-21T08:55:26;11.93;;;5.68;;
20527;SDS011;23612;50.894;10.700;2024-02-21T08:57:52;10.32;;;5.70;;
20527;SDS011;23612;50.894;10.700;2024-02-21T09:00:18;11.00;;;5.53;;
20527;SDS011;23612;50.894;10.700;2024-02-21T09:02:46;18.60;;;6.78;;
20527;SDS011;23612;50.894;10.700;2024-02-21T09:05:11;13.77;;;6.60;;
20527;SDS011;23612;50.894;10.700;2024-02-21T09:07:37;14.63;;;6.95;;
20527;SDS011;23612;50.894;10.700;2024-02-21T09:10:02;15.65;;;7.65;;
20527;SDS011;23612;50.894;10.700;2024-02-21T09:12:28;16.90;;;7.28;;
20527;SDS011;23612;50.894;10.700;2024-02-21T09:14:54;17.83;;;8.50;;
20527;SDS011;23612;50.894;10.700;2024-02-21T09:17:20;17.25;;;7.80;;
20527;SDS011;23612;50.894;10.700;2024-02-21T09:19:50;18.20;;;7.75;;
20527;SDS011;23612;50.894;10.700;2024-02-21T09:22:15;13.90;;;7.65;;
20527;SDS011;23612;50.894;10.700;2024-02-21T09:24:41;13.65;;;7.93;;
20527;SDS011;23612;50.894;10.700;2024-02-21T09:27:06;25.17;;;9.43;;
20527;SDS011;23612;50.894;10.700;2024-02-21T09:29:32;20.95;;;8.32;;
20527;SDS011;23612;50.894;10.700;2024-02-21T09:32:01;12.45;;;7.07;;
20527;SDS011;23612;50.894;10.700;2024-02-21T09:34:27;13.48;;;7.25;;
20527;SDS011;23612;50.894;10.700;2024-02-21T09:36:53;16.67;;;7.15;;
20527;SDS011;23612;50.894;10.700;2024-02-21T09:39:19;66.30;;;9.10;;
20527;SDS011;23612;50.894;10.700;2024-02-21T09:41:50;16.25;;;7.40;;
20527;SDS011;23612;50.894;10.700;2024-02-21T09:44:21;18.42;;;8.20;;
20527;SDS011;23612;50.894;10.700;2024-02-21T09:46:52;19.67;;;7.68;;
20527;SDS011;23612;50.894;10.700;2024-02-21T09:49:30;31.05;;;8.60;;
20527;SDS011;23612;50.894;10.700;2024-02-21T09:51:57;14.13;;;6.50;;
20527;SDS011;23612;50.894;10.700;2024-02-21T09:54:27;10.90;;;6.60;;
20527;SDS011;23612;50.894;10.700;2024-02-21T09:56:54;13.77;;;7.05;;
20527;SDS011;23612;50.894;10.700;2024-02-21T09:59:19;11.63;;;6.63;;
20527;SDS011;23612;50.894;10.700;2024-02-21T10:01:45;10.13;;;6.05;;
20527;SDS011;23612;50.894;10.700;2024-02-21T10:04:11;13.77;;;7.00;;
20527;SDS011;23612;50.894;10.700;2024-02-21T10:06:37;15.57;;;7.03;;
20527;SDS011;23612;50.894;10.700;2024-02-21T10:09:04;20.85;;;6.80;;
20527;SDS011;23612;50.894;10.700;2024-02-21T10:11:31;13.90;;;6.05;;
20527;SDS011;23612;50.894;10.700;2024-02-21T10:14:08;11.40;;;5.30;;
20527;SDS011;23612;50.894;10.700;2024-02-21T10:16:34;9.55;;;5.10;;
20527;SDS011;23612;50.894;10.700;2024-02-21T10:18:59;8.55;;;5.20;;
20527;SDS011;23612;50.894;10.700;2024-02-21T10:21:25;14.93;;;5.10;;
20527;SDS011;23612;50.894;10.700;2024-02-21T10:23:51;10.35;;;5.25;;
20527;SDS011;23612;50.894;10.700;2024-02-21T10:26:17;30.92;;;6.65;;
20527;SDS011;23612;50.894;10.700;2024-02-21T10:28:44;15.52;;;5.63;;
20527;SDS011;23612;50.894;10.700;2024-02-21T10:31:20;12.27;;;4.70;;
20527;SDS011;23612;50.894;10.700;2024-02-21T10:33:53;10.18;;;4.75;;
20527;SDS011;23612;50.894;10.700;2024-02-21T10:36:22;7.95;;;4.50;;
20527;SDS011;23612;50.894;10.700;2024-02-21T10:38:49;14.55;;;5.72;;
20527;SDS011;23612;50.894;10.700;2024-02-21T10:41:14;11.55;;;4.50;;
20527;SDS011;23612;50.894;10.700;2024-02-21T10:43:43;10.90;;;4.47;;
20527;SDS011;23612;50.894;10.700;2024-02-21T10:46:19;14.65;;;4.60;;
20527;SDS011;23612;50.894;10.700;2024-02-21T10:48:46;12.52;;;5.32;;
20527;SDS011;23612;50.894;10.700;2024-02-21T10:54:00;9.98;;;4.10;;
20527;SDS011;23612;50.894;10.700;2024-02-21T10:56:36;22.63;;;5.50;;
20527;SDS011;23612;50.894;10.700;2024-02-21T10:59:05;9.25;;;5.20;;
20527;SDS011;23612;50.894;10.700;2024-02-21T11:01:31;13.75;;;5.50;;
20527;SDS011;23612;50.894;10.700;2024-02-21T11:04:04;15.18;;;6.30;;
20527;SDS011;23612;50.894;10.700;2024-02-21T11:06:31;15.73;;;5.32;;
20527;SDS011;23612;50.894;10.700;2024-02-21T11:09:02;9.82;;;4.53;;
20527;SDS011;23612;50.894;10.700;2024-02-21T11:11:34;13.98;;;5.78;;
20527;SDS011;23612;50.894;10.700;2024-02-21T11:14:18;8.45;;;3.83;;
20527;SDS011;23612;50.894;10.700;2024-02-21T11:16:44;9.35;;;3.88;;
20527;SDS011;23612;50.894;10.700;2024-02-21T11:19:20;7.13;;;3.88;;
20527;SDS011;23612;50.894;10.700;2024-02-21T11:21:47;8.13;;;4.00;;
20527;SDS011;23612;50.894;10.700;2024-02-21T11:24:13;14.57;;;4.65;;
20527;SDS011;23612;50.894;10.700;2024-02-21T11:26:50;9.52;;;4.30;;
20527;SDS011;23612;50.894;10.700;2024-02-21T11:29:15;10.05;;;4.10;;
20527;SDS011;23612;50.894;10.700;2024-02-21T11:31:49;13.23;;;4.78;;
20527;SDS011;23612;50.894;10.700;2024-02-21T11:34:17;12.70;;;4.97;;
20527;SDS011;23612;50.894;10.700;2024-02-21T11:36:47;12.57;;;5.25;;
20527;SDS011;23612;50.894;10.700;2024-02-21T11:39:20;10.63;;;4.60;;
20527;SDS011;23612;50.894;10.700;2024-02-21T11:42:05;10.77;;;4.00;;
20527;SDS011;23612;50.894;10.700;2024-02-21T11:44:35;11.93;;;4.20;;
20527;SDS011;23612;50.894;10.700;2024-02-21T11:47:03;14.15;;;4.75;;
20527;SDS011;23612;50.894;10.700;2024-02-21T11:49:38;10.73;;;5.72;;
20527;SDS011;23612;50.894;10.700;2024-02-21T11:52:07;15.77;;;7.00;;
20527;SDS011;23612;50.894;10.700;2024-02-21T11:54:33;12.88;;;5.85;;
20527;SDS011;23612;50.894;10.700;2024-02-21T11:57:00;13.63;;;5.38;;
20527;SDS011;23612;50.894;10.700;2024-02-21T11:59:25;12.25;;;4.80;;
20527;SDS011;23612;50.894;10.700;2024-02-21T12:01:52;20.98;;;7.50;;
20527;SDS011;23612;50.894;10.700;2024-02-21T12:04:18;9.02;;;4.43;;
20527;SDS011;23612;50.894;10.700;2024-02-21T12:06:45;14.40;;;4.40;;
20527;SDS011;23612;50.894;10.700;2024-02-21T12:09:14;11.73;;;4.60;;
20527;SDS011;23612;50.894;10.700;2024-02-21T12:11:41;7.68;;;4.10;;
20527;SDS011;23612;50.894;10.700;2024-02-21T12:14:06;9.18;;;3.90;;
20527;SDS011;23612;50.894;10.700;2024-02-21T12:16:34;11.02;;;4.30;;
20527;SDS011;23612;50.894;10.700;2024-02-21T12:19:00;8.93;;;4.20;;
20527;SDS011;23612;50.894;10.700;2024-02-21T12:21:26;9.98;;;4.97;;
20527;SDS011;23612;50.894;10.700;2024-02-21T12:23:54;8.57;;;3.42;;
20527;SDS011;23612;50.894;10.700;2024-02-21T12:26:20;11.35;;;3.97;;
20527;SDS011;23612;50.894;10.700;2024-02-21T12:28:45;8.27;;;3.72;;
20527;SDS011;23612;50.894;10.700;2024-02-21T12:31:11;8.77;;;4.10;;
20527;SDS011;23612;50.894;10.700;2024-02-21T12:33:37;14.18;;;4.65;;
20527;SDS011;23612;50.894;10.700;2024-02-21T12:36:03;9.35;;;4.72;;
20527;SDS011;23612;50.894;10.700;2024-02-21T12:38:29;10.95;;;5.00;;
20527;SDS011;23612;50.894;10.700;2024-02-21T12:40:54;10.68;;;4.32;;
20527;SDS011;23612;50.894;10.700;2024-02-21T12:43:20;10.75;;;6.15;;
20527;SDS011;23612;50.894;10.700;2024-02-21T12:45:47;10.52;;;4.60;;
20527;SDS011;23612;50.894;10.700;2024-02-21T12:48:13;10.48;;;3.83;;
20527;SDS011;23612;50.894;10.700;2024-02-21T12:50:39;9.77;;;4.43;;
20527;SDS011;23612;50.894;10.700;2024-02-21T12:53:06;9.75;;;4.47;;
20527;SDS011;23612;50.894;10.700;2024-02-21T12:55:32;11.15;;;4.20;;
20527;SDS011;23612;50.894;10.700;2024-02-21T12:58:02;6.70;;;3.58;;
20527;SDS011;23612;50.894;10.700;2024-02-21T13:00:29;13.77;;;6.40;;
20527;SDS011;23612;50.894;10.700;2024-02-21T13:02:56;16.85;;;7.88;;
20527;SDS011;23612;50.894;10.700;2024-02-21T13:05:21;9.38;;;3.75;;
20527;SDS011;23612;50.894;10.700;2024-02-21T13:07:48;8.68;;;3.67;;
20527;SDS011;23612;50.894;10.700;2024-02-21T13:10:13;6.50;;;3.80;;
20527;SDS011;23612;50.894;10.700;2024-02-21T13:12:39;8.45;;;3.40;;
20527;SDS011;23612;50.894;10.700;2024-02-21T13:15:06;10.77;;;3.40;;
20527;SDS011;23612;50.894;10.700;2024-02-21T13:17:31;9.55;;;3.70;;
20527;SDS011;23612;50.894;10.700;2024-02-21T13:19:58;8.65;;;3.20;;
20527;SDS011;23612;50.894;10.700;2024-02-21T13:22:23;8.13;;;3.22;;
20527;SDS011;23612;50.894;10.700;2024-02-21T13:24:51;10.57;;;3.30;;
20527;SDS011;23612;50.894;10.700;2024-02-21T13:27:17;10.23;;;3.50;;
20527;SDS011;23612;50.894;10.700;2024-02-21T13:29:42;8.25;;;3.33;;
20527;SDS011;23612;50.894;10.700;2024-02-21T13:32:08;13.40;;;4.10;;
20527;SDS011;23612;50.894;10.700;2024-02-21T13:34:33;17.02;;;3.78;;
20527;SDS011;23612;50.894;10.700;2024-02-21T13:36:59;9.68;;;3.42;;
20527;SDS011;23612;50.894;10.700;2024-02-21T13:39:24;7.93;;;3.60;;
20527;SDS011;23612;50.894;10.700;2024-02-21T13:41:50;9.75;;;3.60;;
20527;SDS011;23612;50.894;10.700;2024-02-21T13:44:15;9.02;;;3.28;;
20527;SDS011;23612;50.894;10.700;2024-02-21T13:46:41;8.57;;;3.35;;
20527;SDS011;23612;50.894;10.700;2024-02-21T13:49:06;10.38;;;3.67;;
20527;SDS011;23612;50.894;10.700;2024-02-21T13:51:35;10.50;;;3.67;;
20527;SDS011;23612;50.894;10.700;2024-02-21T13:54:01;15.77;;;3.78;;
20527;SDS011;23612;50.894;10.700;2024-02-21T13:56:30;13.50;;;4.10;;
20527;SDS011;23612;50.894;10.700;2024-02-21T13:58:55;9.15;;;3.78;;
20527;SDS011;23612;50.894;10.700;2024-02-21T14:01:22;10.25;;;3.22;;
20527;SDS011;23612;50.894;10.700;2024-02-21T14:03:48;6.90;;;3.15;;
20527;SDS011;23612;50.894;10.700;2024-02-21T14:06:13;22.27;;;4.25;;
20527;SDS011;23612;50.894;10.700;2024-02-21T14:08:39;10.32;;;4.63;;
20527;SDS011;23612;50.894;10.700;2024-02-21T14:11:04;10.50;;;4.95;;
20527;SDS011;23612;50.894;10.700;2024-02-21T14:13:31;11.68;;;3.70;;
20527;SDS011;23612;50.894;10.700;2024-02-21T14:15:56;5.65;;;3.08;;
20527;SDS011;23612;50.894;10.700;2024-02-21T14:18:22;7.60;;;3.20;;
20527;SDS011;23612;50.894;10.700;2024-02-21T14:20:47;14.70;;;4.60;;
20527;SDS011;23612;50.894;10.700;2024-02-21T14:23:13;10.75;;;3.80;;